createdAt,value
2017-08-11T00:00:15.206Z,9.60
2017-08-11T00:02:41.542Z,9.60
2017-08-11T00:05:07.843Z,9.60
2017-08-11T00:07:34.171Z,9.60
2017-08-11T00:10:01.212Z,9.20
2017-08-11T00:12:27.568Z,9.10
2017-08-11T00:14:53.872Z,8.90
2017-08-11T00:17:20.939Z,8.90
2017-08-11T00:19:47.240Z,8.90
2017-08-11T00:22:13.547Z,9.10
2017-08-11T00:24:39.868Z,9.20
2017-08-11T00:27:06.192Z,9.30
2017-08-11T00:29:32.584Z,9.20
2017-08-11T00:31:59.611Z,9.20
2017-08-11T00:34:25.940Z,9.20
2017-08-11T00:36:53.019Z,9.20
2017-08-11T00:39:19.335Z,9.20
2017-08-11T00:41:46.391Z,9.20
2017-08-11T00:44:12.707Z,9.20
2017-08-11T00:46:39.764Z,9.20
2017-08-11T00:49:06.081Z,9.20
2017-08-11T00:51:33.120Z,8.50
2017-08-11T00:54:00.196Z,8.40
2017-08-11T00:56:26.496Z,8.30
2017-08-11T00:58:52.834Z,8.40
2017-08-11T01:01:19.199Z,8.30
2017-08-11T01:03:45.489Z,8.60
2017-08-11T01:06:11.808Z,8.80
2017-08-11T01:08:38.115Z,8.90
2017-08-11T01:11:04.476Z,8.90
2017-08-11T01:13:31.544Z,9.10
2017-08-11T01:15:58.569Z,9.00
2017-08-11T01:18:24.891Z,9.00
2017-08-11T01:20:51.203Z,9.00
2017-08-11T01:23:17.539Z,9.10
2017-08-11T01:25:43.832Z,9.20
2017-08-11T01:28:10.172Z,9.10
2017-08-11T01:30:36.495Z,9.20
2017-08-11T01:33:02.875Z,9.10
2017-08-11T01:35:29.994Z,8.90
2017-08-11T01:37:56.360Z,8.80
2017-08-11T01:40:22.684Z,8.70
2017-08-11T01:42:49.036Z,8.50
2017-08-11T01:45:15.375Z,8.60
2017-08-11T01:47:41.711Z,8.60
2017-08-11T01:50:08.104Z,8.60
2017-08-11T01:52:34.446Z,8.40
2017-08-11T01:55:00.807Z,8.40
2017-08-11T01:57:27.168Z,8.40
2017-08-11T01:59:53.538Z,8.30
2017-08-11T02:02:20.584Z,8.30
2017-08-11T02:04:47.696Z,8.30
2017-08-11T02:07:14.063Z,8.30
2017-08-11T02:09:40.422Z,8.40
2017-08-11T02:12:06.755Z,8.50
2017-08-11T02:14:33.108Z,8.60
2017-08-11T02:16:59.407Z,8.60
2017-08-11T02:19:26.464Z,8.60
2017-08-11T02:21:52.784Z,8.60
2017-08-11T02:24:19.119Z,8.60
2017-08-11T02:26:45.424Z,8.50
2017-08-11T02:29:11.780Z,8.70
2017-08-11T02:31:38.423Z,8.80
2017-08-11T02:34:04.753Z,8.90
2017-08-11T02:36:31.052Z,9.10
2017-08-11T02:38:58.166Z,9.20
2017-08-11T02:41:24.487Z,9.20
2017-08-11T02:43:50.827Z,9.20
2017-08-11T02:46:17.160Z,9.30
2017-08-11T02:48:43.468Z,9.30
2017-08-11T02:51:09.803Z,9.30
2017-08-11T02:53:36.148Z,9.40
2017-08-11T02:56:02.556Z,9.50
2017-08-11T02:58:28.859Z,9.30
2017-08-11T03:00:55.965Z,9.60
2017-08-11T03:03:22.304Z,9.60
2017-08-11T03:05:48.596Z,9.70
2017-08-11T03:08:14.875Z,9.60
2017-08-11T03:10:41.211Z,9.60
2017-08-11T03:13:07.499Z,9.50
2017-08-11T03:15:33.795Z,9.70
2017-08-11T03:18:00.112Z,9.60
2017-08-11T03:20:26.479Z,9.80
2017-08-11T03:22:53.324Z,9.80
2017-08-11T03:25:19.603Z,9.80
2017-08-11T03:27:46.673Z,9.70
2017-08-11T03:30:13.026Z,9.60
2017-08-11T03:32:40.036Z,9.80
2017-08-11T03:35:07.065Z,9.80
2017-08-11T03:37:33.372Z,9.80
2017-08-11T03:39:59.708Z,9.80
2017-08-11T03:42:26.007Z,9.90
2017-08-11T03:44:52.294Z,9.90
2017-08-11T03:47:18.599Z,9.90
2017-08-11T03:49:44.922Z,9.90
2017-08-11T03:52:11.203Z,9.90
2017-08-11T03:54:38.271Z,9.90
2017-08-11T03:57:04.627Z,9.90
2017-08-11T03:59:30.949Z,9.80
2017-08-11T04:01:57.270Z,9.80
2017-08-11T04:04:24.284Z,9.90
2017-08-11T04:06:50.607Z,9.90
2017-08-11T04:09:16.890Z,9.80
2017-08-11T04:11:43.144Z,9.80
2017-08-11T04:14:09.487Z,9.90
2017-08-11T04:16:35.745Z,9.90
2017-08-11T04:19:02.017Z,9.90
2017-08-11T04:21:28.263Z,9.90
2017-08-11T04:23:54.535Z,9.90
2017-08-11T04:26:20.776Z,10.00
2017-08-11T04:28:47.891Z,10.00
2017-08-11T04:31:14.142Z,9.90
2017-08-11T04:33:40.420Z,10.00
2017-08-11T04:36:06.711Z,10.10
2017-08-11T04:38:33.719Z,10.10
2017-08-11T04:41:00.010Z,10.20
2017-08-11T04:43:26.262Z,10.10
2017-08-11T04:45:52.536Z,10.20
2017-08-11T04:48:19.556Z,10.30
2017-08-11T04:50:45.855Z,10.20
2017-08-11T04:53:12.431Z,10.30
2017-08-11T04:55:46.851Z,10.30
2017-08-11T04:58:13.132Z,10.30
2017-08-11T05:00:39.387Z,10.30
2017-08-11T05:03:05.697Z,10.40
2017-08-11T05:05:31.964Z,10.40
2017-08-11T05:07:58.228Z,10.30
2017-08-11T05:10:25.296Z,10.40
2017-08-11T05:12:51.562Z,10.40
2017-08-11T05:15:17.816Z,10.30
2017-08-11T05:17:44.081Z,10.40
2017-08-11T05:20:10.327Z,10.40
2017-08-11T05:22:37.016Z,10.40
2017-08-11T05:25:03.271Z,10.40
2017-08-11T05:27:29.520Z,10.40
2017-08-11T05:29:55.887Z,10.30
2017-08-11T05:32:22.153Z,10.30
2017-08-11T05:34:48.448Z,10.30
2017-08-11T05:37:14.725Z,10.30
2017-08-11T05:39:41.008Z,10.30
2017-08-11T05:42:07.324Z,10.40
2017-08-11T05:44:33.592Z,10.50
2017-08-11T05:47:00.647Z,10.50
2017-08-11T05:49:27.001Z,10.30
2017-08-11T05:51:53.271Z,10.50
2017-08-11T05:54:19.544Z,10.50
2017-08-11T05:56:45.877Z,10.60
2017-08-11T05:59:12.131Z,10.60
2017-08-11T06:01:38.413Z,10.60
2017-08-11T06:04:05.420Z,10.10
2017-08-11T06:06:31.711Z,10.10
2017-08-11T06:08:58.138Z,10.10
2017-08-11T06:11:24.488Z,10.30
2017-08-11T06:13:50.744Z,10.40
2017-08-11T06:16:17.096Z,10.50
2017-08-11T06:18:43.371Z,10.60
2017-08-11T06:21:09.623Z,10.70
2017-08-11T06:23:35.911Z,10.90
2017-08-11T06:26:02.160Z,11.00
2017-08-11T06:28:28.507Z,11.00
2017-08-11T06:30:54.759Z,11.10
2017-08-11T06:33:21.021Z,11.20
2017-08-11T06:35:47.315Z,11.50
2017-08-11T06:38:13.672Z,11.50
2017-08-11T06:40:39.927Z,11.70
2017-08-11T06:43:06.204Z,11.80
2017-08-11T06:45:32.460Z,11.90
2017-08-11T06:47:59.463Z,12.20
2017-08-11T06:50:25.767Z,12.20
2017-08-11T06:52:52.045Z,12.40
2017-08-11T06:55:18.301Z,12.50
2017-08-11T06:57:44.596Z,12.60
2017-08-11T07:00:10.888Z,12.80
2017-08-11T07:02:37.152Z,12.70
2017-08-11T07:05:03.457Z,13.00
2017-08-11T07:07:29.720Z,13.20
2017-08-11T07:09:56.019Z,13.30
2017-08-11T07:12:22.319Z,13.30
2017-08-11T07:14:48.572Z,13.40
2017-08-11T07:17:14.831Z,13.50
2017-08-11T07:19:41.115Z,13.50
2017-08-11T07:22:07.371Z,13.60
2017-08-11T07:24:33.666Z,13.60
2017-08-11T07:26:59.996Z,13.60
2017-08-11T07:29:26.272Z,13.60
2017-08-11T07:31:52.545Z,13.60
2017-08-11T07:34:18.823Z,13.60
2017-08-11T07:36:45.117Z,13.70
2017-08-11T07:39:11.468Z,13.70
2017-08-11T07:41:37.769Z,13.80
2017-08-11T07:44:04.040Z,13.80
2017-08-11T07:46:30.301Z,13.80
2017-08-11T07:48:57.352Z,14.00
2017-08-11T07:51:24.356Z,14.00
2017-08-11T07:53:50.635Z,14.00
2017-08-11T07:56:16.927Z,14.00
2017-08-11T07:58:43.184Z,13.90
2017-08-11T08:01:09.487Z,13.90
2017-08-11T08:03:35.781Z,13.90
2017-08-11T08:06:02.046Z,13.80
2017-08-11T08:08:28.349Z,13.80
2017-08-11T08:10:54.663Z,13.80
2017-08-11T08:13:20.935Z,13.80
2017-08-11T08:15:47.291Z,13.80
2017-08-11T08:18:14.308Z,13.90
2017-08-11T08:20:40.567Z,13.90
2017-08-11T08:23:07.608Z,13.90
2017-08-11T08:25:34.680Z,13.80
2017-08-11T08:28:00.952Z,13.80
2017-08-11T08:30:27.247Z,13.90
2017-08-11T08:32:53.501Z,13.90
2017-08-11T08:35:19.787Z,13.90
2017-08-11T08:37:46.051Z,14.00
2017-08-11T08:40:12.301Z,14.10
2017-08-11T08:42:38.547Z,14.10
2017-08-11T08:45:04.829Z,14.10
2017-08-11T08:47:31.067Z,14.10
2017-08-11T08:49:57.357Z,14.10
2017-08-11T08:52:23.674Z,14.20
2017-08-11T08:54:50.667Z,14.20
2017-08-11T08:57:16.963Z,14.10
2017-08-11T08:59:43.231Z,14.20
2017-08-11T09:02:09.506Z,14.20
2017-08-11T09:04:36.510Z,14.00
2017-08-11T09:07:02.802Z,14.00
2017-08-11T09:09:29.051Z,13.80
2017-08-11T09:11:55.372Z,13.80
2017-08-11T09:14:21.660Z,13.80
2017-08-11T09:16:47.998Z,13.90
2017-08-11T09:19:14.997Z,14.00
2017-08-11T09:21:41.283Z,14.00
2017-08-11T09:24:08.316Z,13.80
2017-08-11T09:26:56.495Z,13.90
2017-08-11T09:29:35.022Z,13.90
2017-08-11T09:32:28.424Z,14.10
2017-08-11T09:35:07.028Z,14.20
2017-08-11T09:37:33.336Z,14.20
2017-08-11T09:39:59.634Z,14.30
2017-08-11T09:42:25.989Z,14.40
2017-08-11T09:44:53.112Z,14.30
2017-08-11T09:47:19.411Z,14.40
2017-08-11T09:49:45.754Z,14.40
2017-08-11T09:52:12.139Z,14.40
2017-08-11T09:54:38.435Z,14.50
2017-08-11T09:57:04.770Z,14.50
2017-08-11T09:59:31.091Z,14.60
2017-08-11T10:01:57.413Z,14.40
2017-08-11T10:04:23.753Z,14.50
2017-08-11T10:06:50.128Z,14.60
2017-08-11T10:09:18.164Z,14.50
2017-08-11T10:11:44.503Z,14.50
2017-08-11T10:14:10.865Z,14.60
2017-08-11T10:16:37.180Z,14.70
2017-08-11T10:19:03.464Z,14.70
2017-08-11T10:21:29.785Z,14.80
2017-08-11T10:23:56.075Z,14.80
2017-08-11T10:26:22.407Z,14.90
2017-08-11T10:28:49.465Z,14.90
2017-08-11T10:31:16.520Z,14.80
2017-08-11T10:33:42.880Z,14.70
2017-08-11T10:36:09.234Z,14.80
2017-08-11T10:38:35.532Z,14.90
2017-08-11T10:41:01.876Z,15.00
2017-08-11T10:43:28.204Z,14.90
2017-08-11T10:45:54.564Z,14.90
2017-08-11T10:48:20.855Z,14.80
2017-08-11T10:50:47.158Z,14.70
2017-08-11T10:53:14.226Z,14.70
2017-08-11T10:55:40.578Z,14.80
2017-08-11T10:58:06.933Z,14.80
2017-08-11T11:00:33.313Z,14.60
2017-08-11T11:02:59.631Z,14.60
2017-08-11T11:05:26.696Z,14.60
2017-08-11T11:07:53.063Z,14.60
2017-08-11T11:10:19.413Z,14.60
2017-08-11T11:12:45.719Z,14.50
2017-08-11T11:15:12.052Z,14.50
2017-08-11T11:17:38.403Z,14.60
2017-08-11T11:20:04.694Z,14.60
2017-08-11T11:22:31.037Z,14.70
2017-08-11T11:24:57.373Z,14.60
2017-08-11T11:27:23.753Z,14.60
2017-08-11T11:29:50.121Z,14.70
2017-08-11T11:32:17.174Z,14.50
2017-08-11T11:34:43.613Z,14.50
2017-08-11T11:37:09.956Z,14.50
2017-08-11T11:39:36.252Z,14.60
2017-08-11T11:42:02.647Z,14.60
2017-08-11T11:44:29.727Z,14.50
2017-08-11T11:46:56.040Z,14.50
2017-08-11T11:49:22.397Z,14.50
2017-08-11T11:51:48.704Z,14.40
2017-08-11T11:54:15.032Z,14.50
2017-08-11T11:56:41.424Z,14.40
2017-08-11T11:59:07.805Z,14.60
2017-08-11T12:01:34.170Z,14.50
2017-08-11T12:04:00.464Z,14.60
2017-08-11T12:06:26.791Z,14.70
2017-08-11T12:08:53.155Z,14.50
2017-08-11T12:11:19.486Z,14.50
2017-08-11T12:13:45.815Z,14.60
2017-08-11T12:16:12.416Z,14.60
2017-08-11T12:18:38.731Z,14.80
2017-08-11T12:21:05.767Z,14.60
2017-08-11T12:23:32.839Z,14.70
2017-08-11T12:25:59.168Z,14.70
2017-08-11T12:28:25.456Z,14.50
2017-08-11T12:30:51.779Z,14.40
2017-08-11T12:33:18.107Z,14.40
2017-08-11T12:35:44.407Z,14.40
2017-08-11T12:38:10.776Z,14.40
2017-08-11T12:40:37.092Z,14.50
2017-08-11T12:43:03.420Z,14.50
2017-08-11T12:45:29.752Z,14.60
2017-08-11T12:47:56.044Z,14.50
2017-08-11T12:50:22.387Z,14.20
2017-08-11T12:52:48.709Z,14.40
2017-08-11T12:55:15.052Z,14.50
2017-08-11T12:57:41.347Z,14.40
2017-08-11T13:00:07.659Z,14.40
2017-08-11T13:02:34.016Z,14.40
2017-08-11T13:05:00.317Z,14.60
2017-08-11T13:07:27.424Z,14.50
2017-08-11T13:09:53.729Z,14.40
2017-08-11T13:12:20.024Z,14.50
2017-08-11T13:14:46.345Z,14.50
2017-08-11T13:17:12.640Z,14.50
2017-08-11T13:19:38.969Z,14.40
2017-08-11T13:22:05.290Z,14.40
2017-08-11T13:24:31.611Z,14.60
2017-08-11T13:26:57.942Z,14.60
2017-08-11T13:29:24.239Z,14.60
2017-08-11T13:31:50.585Z,14.70
2017-08-11T13:34:16.896Z,14.70
2017-08-11T13:36:43.187Z,14.60
2017-08-11T13:39:09.562Z,14.60
2017-08-11T13:41:36.603Z,14.70
2017-08-11T13:44:02.955Z,14.70
2017-08-11T13:46:29.268Z,14.70
2017-08-11T13:48:56.310Z,14.60
2017-08-11T13:51:22.608Z,14.50
2017-08-11T13:53:48.920Z,14.50
2017-08-11T13:56:15.240Z,14.50
2017-08-11T13:58:41.559Z,14.60
2017-08-11T14:01:07.899Z,14.50
2017-08-11T14:03:35.028Z,14.50
2017-08-11T14:06:02.103Z,14.50
2017-08-11T14:08:28.472Z,14.50
2017-08-11T14:10:54.768Z,14.50
2017-08-11T14:13:21.192Z,14.50
2017-08-11T14:15:47.559Z,14.50
2017-08-11T14:18:13.951Z,14.40
2017-08-11T14:20:40.468Z,14.30
2017-08-11T14:23:06.829Z,14.20
2017-08-11T14:25:33.156Z,14.20
2017-08-11T14:27:59.484Z,14.30
2017-08-11T14:30:25.792Z,14.20
2017-08-11T14:32:52.124Z,14.20
2017-08-11T14:35:18.459Z,14.20
2017-08-11T14:37:44.818Z,14.30
2017-08-11T14:40:11.133Z,14.20
2017-08-11T14:42:37.987Z,14.20
2017-08-11T14:45:04.379Z,14.30
2017-08-11T14:47:31.427Z,14.20
2017-08-11T14:49:58.475Z,14.20
2017-08-11T14:52:25.559Z,14.10
2017-08-11T14:54:51.879Z,14.20
2017-08-11T14:57:18.176Z,14.20
2017-08-11T14:59:44.832Z,14.20
2017-08-11T15:02:11.939Z,14.00
2017-08-11T15:04:38.243Z,14.00
2017-08-11T15:07:04.592Z,14.00
2017-08-11T15:09:30.951Z,13.90
2017-08-11T15:11:58.003Z,13.90
2017-08-11T15:14:25.087Z,13.90
2017-08-11T15:16:51.507Z,13.90
2017-08-11T15:19:17.828Z,14.00
2017-08-11T15:21:44.892Z,14.00
2017-08-11T15:24:11.204Z,14.00
2017-08-11T15:26:37.516Z,14.00
2017-08-11T15:29:03.859Z,13.90
2017-08-11T15:31:30.167Z,13.90
2017-08-11T15:33:56.503Z,14.00
2017-08-11T15:36:22.807Z,14.00
2017-08-11T15:38:49.116Z,14.00
2017-08-11T15:41:15.461Z,14.00
2017-08-11T15:43:41.775Z,14.10
2017-08-11T15:46:08.085Z,14.10
2017-08-11T15:48:34.396Z,14.20
2017-08-11T15:51:01.468Z,14.00
2017-08-11T15:53:27.788Z,14.00
2017-08-11T15:55:54.111Z,14.10
2017-08-11T15:58:21.156Z,14.00
2017-08-11T16:00:47.496Z,14.00
2017-08-11T16:03:13.803Z,14.00
2017-08-11T16:05:40.839Z,14.10
2017-08-11T16:08:07.183Z,14.10
2017-08-11T16:10:34.275Z,14.10
2017-08-11T16:13:00.652Z,14.10
2017-08-11T16:15:27.736Z,14.20
2017-08-11T16:17:54.079Z,14.10
2017-08-11T16:20:20.417Z,14.20
2017-08-11T16:22:46.732Z,14.20
2017-08-11T16:25:13.059Z,14.20
2017-08-11T16:27:39.405Z,14.10
2017-08-11T16:30:05.736Z,14.10
2017-08-11T16:32:32.072Z,14.00
2017-08-11T16:34:58.363Z,14.10
2017-08-11T16:37:25.423Z,14.10
2017-08-11T16:39:51.779Z,14.10
2017-08-11T16:42:18.112Z,14.20
2017-08-11T16:44:44.437Z,14.20
2017-08-11T16:47:10.748Z,14.30
2017-08-11T16:49:37.114Z,14.30
2017-08-11T16:52:03.435Z,14.40
2017-08-11T16:54:29.763Z,14.40
2017-08-11T16:56:56.121Z,14.40
2017-08-11T16:59:22.420Z,14.40
2017-08-11T17:01:48.733Z,14.30
2017-08-11T17:04:15.055Z,14.30
2017-08-11T17:06:41.356Z,14.40
2017-08-11T17:09:07.671Z,14.30
2017-08-11T17:11:34.509Z,14.30
2017-08-11T17:14:00.815Z,14.30
2017-08-11T17:16:27.144Z,14.20
2017-08-11T17:18:53.526Z,14.30
2017-08-11T17:21:19.853Z,14.20
2017-08-11T17:23:46.899Z,14.20
2017-08-11T17:26:13.948Z,14.20
2017-08-11T17:28:41.040Z,14.20
2017-08-11T17:31:07.348Z,14.20
2017-08-11T17:33:33.646Z,14.30
2017-08-11T17:35:59.972Z,14.20
2017-08-11T17:38:26.283Z,14.30
2017-08-11T17:40:53.413Z,14.20
2017-08-11T17:43:19.760Z,14.30
2017-08-11T17:45:46.057Z,14.20
2017-08-11T17:48:12.394Z,14.20
2017-08-11T17:50:38.728Z,14.20
2017-08-11T17:53:05.047Z,14.20
2017-08-11T17:55:31.360Z,14.20
2017-08-11T17:57:57.667Z,14.20
2017-08-11T18:00:24.734Z,14.20
2017-08-11T18:02:51.081Z,14.20
2017-08-11T18:05:17.968Z,14.20
2017-08-11T18:07:44.296Z,14.20
2017-08-11T18:10:10.600Z,14.20
2017-08-11T18:12:36.951Z,14.20
2017-08-11T18:15:03.315Z,14.20
2017-08-11T18:17:30.383Z,14.30
2017-08-11T18:19:56.722Z,14.20
2017-08-11T18:22:23.065Z,14.30
2017-08-11T18:24:49.363Z,14.10
2017-08-11T18:27:16.476Z,14.10
2017-08-11T18:29:42.832Z,14.00
2017-08-11T18:32:09.888Z,14.10
2017-08-11T18:34:36.927Z,14.00
2017-08-11T18:37:04.003Z,14.00
2017-08-11T18:39:30.327Z,14.00
2017-08-11T18:41:56.652Z,14.00
2017-08-11T18:44:23.003Z,14.00
2017-08-11T18:46:49.299Z,13.90
2017-08-11T18:49:16.384Z,13.90
2017-08-11T18:51:42.703Z,14.10
2017-08-11T18:54:09.056Z,13.80
2017-08-11T18:56:35.340Z,13.90
2017-08-11T18:59:01.674Z,13.70
2017-08-11T19:01:28.729Z,13.70
2017-08-11T19:03:55.084Z,13.70
2017-08-11T19:06:21.508Z,13.70
2017-08-11T19:08:47.990Z,13.70
2017-08-11T19:11:14.463Z,13.60
2017-08-11T19:13:40.952Z,13.50
2017-08-11T19:16:08.107Z,13.50
2017-08-11T19:18:35.396Z,13.50
2017-08-11T19:21:02.013Z,13.50
2017-08-11T19:23:28.661Z,13.50
2017-08-11T19:25:55.232Z,13.40
2017-08-11T19:28:21.917Z,13.30
2017-08-11T19:30:48.571Z,13.40
2017-08-11T19:33:15.205Z,13.30
2017-08-11T19:35:41.854Z,13.40
2017-08-11T19:38:08.489Z,13.50
2017-08-11T19:40:35.140Z,13.50
2017-08-11T19:43:01.809Z,13.40
2017-08-11T19:45:29.189Z,13.40
2017-08-11T19:47:55.821Z,13.40
2017-08-11T19:50:22.519Z,13.30
2017-08-11T19:52:49.927Z,13.30
2017-08-11T19:55:16.542Z,13.30
2017-08-11T19:57:43.952Z,13.40
2017-08-11T20:00:10.687Z,13.40
2017-08-11T20:02:38.061Z,13.50
2017-08-11T20:05:04.695Z,13.40
2017-08-11T20:07:31.368Z,13.40
2017-08-11T20:09:58.039Z,13.40
2017-08-11T20:12:24.842Z,13.30
2017-08-11T20:14:51.500Z,13.30
2017-08-11T20:17:18.055Z,13.30
2017-08-11T20:19:44.675Z,13.30
2017-08-11T20:22:11.348Z,13.30
2017-08-11T20:24:37.884Z,13.30
2017-08-11T20:27:04.406Z,13.40
2017-08-11T20:29:30.789Z,13.30
2017-08-11T20:31:57.210Z,13.40
2017-08-11T20:34:23.561Z,13.30
2017-08-11T20:36:49.929Z,13.30
2017-08-11T20:39:17.041Z,13.40
2017-08-11T20:41:43.380Z,13.30
2017-08-11T20:44:09.711Z,13.40
2017-08-11T20:46:36.858Z,13.20
2017-08-11T20:49:03.199Z,13.20
2017-08-11T20:51:32.352Z,13.20
2017-08-11T20:53:58.683Z,13.20
2017-08-11T20:56:24.976Z,13.20
2017-08-11T20:58:51.309Z,13.10
2017-08-11T21:01:17.612Z,13.10
2017-08-11T21:03:43.970Z,13.10
2017-08-11T21:06:10.316Z,13.10
2017-08-11T21:08:36.700Z,13.10
2017-08-11T21:11:03.008Z,13.10
2017-08-11T21:13:29.319Z,13.10
2017-08-11T21:15:55.713Z,13.10
2017-08-11T21:18:22.855Z,13.00
2017-08-11T21:20:49.287Z,13.00
2017-08-11T21:23:15.669Z,12.90
2017-08-11T21:25:42.060Z,12.90
2017-08-11T21:28:08.445Z,12.90
2017-08-11T21:30:34.835Z,12.90
2017-08-11T21:33:01.233Z,12.90
2017-08-11T21:35:27.617Z,13.00
2017-08-11T21:37:54.038Z,13.00
2017-08-11T21:40:20.435Z,13.00
2017-08-11T21:42:46.840Z,12.80
2017-08-11T21:45:13.248Z,12.90
2017-08-11T21:47:39.644Z,12.90
2017-08-11T21:50:06.046Z,12.90
2017-08-11T21:52:32.432Z,12.90
2017-08-11T21:54:58.811Z,12.90
2017-08-11T21:57:25.187Z,12.90
2017-08-11T21:59:51.588Z,13.00
2017-08-11T22:02:18.704Z,12.90
2017-08-11T22:04:45.097Z,12.90
2017-08-11T22:07:11.474Z,12.90
2017-08-11T22:09:37.852Z,12.90
2017-08-11T22:12:04.365Z,12.90
2017-08-11T22:14:31.499Z,13.00
2017-08-11T22:16:57.913Z,13.00
2017-08-11T22:19:24.284Z,12.90
2017-08-11T22:21:51.391Z,13.00
2017-08-11T22:24:17.803Z,12.90
2017-08-11T22:26:44.164Z,12.90
2017-08-11T22:29:10.593Z,12.90
2017-08-11T22:31:36.980Z,12.90
2017-08-11T22:34:03.339Z,12.90
2017-08-11T22:36:29.752Z,12.80
2017-08-11T22:38:56.126Z,12.80
2017-08-11T22:41:22.492Z,12.90
2017-08-11T22:43:49.632Z,12.90
2017-08-11T22:46:16.013Z,12.90
2017-08-11T22:48:42.406Z,12.80
2017-08-11T22:51:08.800Z,12.90
2017-08-11T22:53:35.252Z,12.90
2017-08-11T22:56:01.669Z,12.90
2017-08-11T22:58:28.036Z,13.00
2017-08-11T23:00:55.154Z,13.00
2017-08-11T23:03:21.543Z,13.00
2017-08-11T23:05:47.940Z,12.90
2017-08-11T23:08:15.083Z,12.80
2017-08-11T23:10:41.470Z,12.90
2017-08-11T23:13:07.867Z,12.90
2017-08-11T23:15:35.272Z,13.10
2017-08-11T23:18:01.640Z,12.90
2017-08-11T23:20:28.728Z,13.00
2017-08-11T23:22:55.120Z,13.00
2017-08-11T23:25:22.234Z,13.00
2017-08-11T23:27:48.603Z,13.00
2017-08-11T23:30:15.028Z,12.90
2017-08-11T23:32:42.123Z,13.00
2017-08-11T23:35:08.468Z,13.00
2017-08-11T23:37:34.860Z,13.00
2017-08-11T23:40:01.275Z,13.00
2017-08-11T23:42:27.640Z,13.00
2017-08-11T23:44:54.040Z,13.00
2017-08-11T23:47:20.433Z,13.00
2017-08-11T23:49:46.799Z,12.90
2017-08-11T23:52:13.919Z,12.80
2017-08-11T23:54:40.315Z,12.80
2017-08-11T23:57:06.672Z,12.70
2017-08-11T23:59:33.047Z,12.70
